Time;durP1;ratioP1;P1;durP2;ratioP2;P2;SDS_P1;SDS_P2;PMS_P1;PMS_P2;Temp;Humidity;BMP_temperature;BMP_pressure;BME280_temperature;BME280_humidity;BME280_pressure;Samples;Min_cycle;Max_cycle;Signal;HPM_P1;HPM_P2
2022/08/03 00:00:55;;;;;;;11.70;2.85;;;20.40;99.90;;;;;;5092703;28;20189;-84
2022/08/03 00:03:22;;;;;;;13.20;3.20;;;20.40;99.90;;;;;;5091759;28;20224;-83
2022/08/03 00:05:50;;;;;;;15.18;3.60;;;20.40;99.90;;;;;;5091780;28;20467;-82
2022/08/03 00:08:17;;;;;;;13.60;3.97;;;20.40;99.90;;;;;;5092406;28;20505;-83
2022/08/03 00:10:44;;;;;;;13.52;3.53;;;20.40;99.90;;;;;;5092443;28;20204;-84
2022/08/03 00:13:12;;;;;;;15.13;3.13;;;20.40;99.90;;;;;;5114285;28;20280;-82
2022/08/03 00:15:40;;;;;;;16.73;3.83;;;20.40;99.90;;;;;;5106355;28;20244;-81
2022/08/03 00:18:07;;;;;;;13.23;3.75;;;20.40;99.90;;;;;;5096330;28;20196;-83
2022/08/03 00:20:34;;;;;;;12.80;3.40;;;20.40;99.90;;;;;;5096180;28;20588;-83
2022/08/03 00:23:04;;;;;;;15.13;4.82;;;20.40;99.90;;;;;;5096501;28;20631;-82
2022/08/03 00:25:31;;;;;;;17.55;3.75;;;20.30;99.90;;;;;;5096337;28;20200;-85
2022/08/03 00:27:58;;;;;;;20.10;4.28;;;20.30;99.90;;;;;;5096607;28;20206;-84
2022/08/03 00:30:25;;;;;;;10.95;3.55;;;20.30;99.90;;;;;;5096552;28;20584;-85
2022/08/03 00:32:52;;;;;;;11.43;3.55;;;20.30;99.90;;;;;;5096167;28;20211;-86
2022/08/03 00:35:19;;;;;;;18.23;3.72;;;20.30;99.90;;;;;;5097440;28;20211;-83
2022/08/03 00:37:46;;;;;;;10.85;3.65;;;20.30;99.90;;;;;;5096745;28;20224;-85
2022/08/03 00:40:16;;;;;;;16.52;3.55;;;20.30;99.90;;;;;;5096413;28;20185;-85
2022/08/03 00:42:52;;;;;;;15.10;3.97;;;20.30;99.90;;;;;;5097003;28;20203;-85
2022/08/03 00:45:20;;;;;;;17.20;3.60;;;20.30;99.90;;;;;;5096448;28;20208;-81
2022/08/03 00:47:47;;;;;;;14.18;4.18;;;20.20;99.90;;;;;;5096042;28;20219;-82
2022/08/03 00:50:15;;;;;;;13.18;3.65;;;20.20;99.90;;;;;;5096022;28;20296;-82
2022/08/03 00:52:42;;;;;;;13.93;3.50;;;20.20;99.90;;;;;;5095987;28;20207;-83
2022/08/03 00:55:10;;;;;;;16.33;4.40;;;20.20;99.90;;;;;;5095734;28;20181;-84
2022/08/03 00:57:38;;;;;;;13.05;3.47;;;20.20;99.90;;;;;;5096343;28;20189;-85
2022/08/03 01:00:09;;;;;;;15.38;4.30;;;20.20;99.90;;;;;;5096366;28;20212;-83
2022/08/03 01:02:37;;;;;;;9.88;3.63;;;20.20;99.90;;;;;;5095144;28;20192;-85
2022/08/03 01:05:04;;;;;;;15.85;3.60;;;20.20;99.90;;;;;;5101342;28;20572;-84
2022/08/03 01:07:42;;;;;;;17.40;4.18;;;20.20;99.90;;;;;;5115594;28;20282;-84
2022/08/03 01:10:17;;;;;;;13.98;4.38;;;20.20;99.90;;;;;;5103553;28;20295;-80
2022/08/03 01:12:53;;;;;;;12.48;3.50;;;20.20;99.90;;;;;;5095080;28;20483;-84
2022/08/03 01:15:29;;;;;;;13.18;3.50;;;20.10;99.90;;;;;;5094921;28;20204;-83
2022/08/03 01:17:59;;;;;;;14.43;3.53;;;20.10;99.90;;;;;;5100977;28;20319;-83
2022/08/03 01:20:31;;;;;;;18.23;4.13;;;20.10;99.90;;;;;;5115443;28;20192;-83
2022/08/03 01:23:15;;;;;;;17.45;4.60;;;20.10;99.90;;;;;;5114796;28;20192;-81
2022/08/03 01:25:59;;;;;;;14.07;3.38;;;20.10;99.90;;;;;;5115627;28;20195;-82
2022/08/03 01:28:58;;;;;;;15.70;3.97;;;20.10;99.90;;;;;;5114629;28;20206;-84
2022/08/03 01:31:31;;;;;;;13.10;3.42;;;20.10;99.90;;;;;;5115955;28;20200;-83
2022/08/03 01:34:02;;;;;;;15.43;4.60;;;20.10;99.90;;;;;;5096458;28;20204;-81
2022/08/03 01:36:35;;;;;;;17.05;4.05;;;20.00;99.90;;;;;;5093964;28;20686;-84
2022/08/03 01:39:08;;;;;;;15.02;3.85;;;20.00;99.90;;;;;;5095685;28;20216;-82
2022/08/03 01:41:39;;;;;;;14.38;4.55;;;20.00;99.90;;;;;;5114579;28;20603;-82
2022/08/03 01:44:09;;;;;;;13.10;3.65;;;20.00;99.90;;;;;;5114297;28;20241;-83
2022/08/03 01:46:40;;;;;;;9.45;3.45;;;20.00;99.90;;;;;;5115718;28;20534;-84
2022/08/03 01:49:10;;;;;;;16.80;3.90;;;20.00;99.90;;;;;;5109861;28;20200;-84
2022/08/03 01:51:38;;;;;;;15.90;3.78;;;20.00;99.90;;;;;;5094225;28;20200;-83
2022/08/03 01:54:07;;;;;;;16.85;4.43;;;19.90;99.90;;;;;;5095151;28;20215;-85
2022/08/03 01:56:36;;;;;;;14.95;3.42;;;19.90;99.90;;;;;;5094361;28;20593;-84
2022/08/03 01:59:04;;;;;;;16.55;4.25;;;19.90;99.90;;;;;;5094492;28;20228;-83
2022/08/03 02:01:32;;;;;;;12.88;4.43;;;19.90;99.90;;;;;;5094510;28;20192;-83
2022/08/03 02:04:01;;;;;;;17.08;4.10;;;19.90;99.90;;;;;;5094464;28;20217;-85
2022/08/03 02:06:32;;;;;;;12.98;3.75;;;19.90;99.90;;;;;;5094820;28;20203;-83
2022/08/03 02:09:00;;;;;;;13.15;4.15;;;19.90;99.90;;;;;;5094922;28;20287;-84
2022/08/03 02:11:29;;;;;;;11.57;4.00;;;19.90;99.90;;;;;;5093631;28;20205;-84
2022/08/03 02:13:59;;;;;;;13.23;3.83;;;19.90;99.90;;;;;;5110993;28;20282;-84
2022/08/03 02:16:27;;;;;;;18.67;4.57;;;19.90;99.90;;;;;;5114250;28;20314;-83
2022/08/03 02:18:56;;;;;;;16.75;4.20;;;19.90;99.90;;;;;;5111947;28;20198;-81
2022/08/03 02:21:24;;;;;;;14.88;3.67;;;19.90;99.90;;;;;;5094016;28;20239;-81
2022/08/03 02:23:51;;;;;;;14.73;4.25;;;19.80;99.90;;;;;;5093860;28;20238;-83
2022/08/03 02:26:22;;;;;;;11.73;3.65;;;19.80;99.90;;;;;;5093379;28;20619;-83
2022/08/03 02:28:52;;;;;;;10.98;3.67;;;19.80;99.90;;;;;;5093313;28;20620;-83
2022/08/03 02:31:23;;;;;;;15.80;4.72;;;19.80;99.90;;;;;;5107347;28;20537;-81
2022/08/03 02:33:53;;;;;;;19.52;4.47;;;19.80;99.90;;;;;;5113562;28;20638;-84
2022/08/03 02:36:23;;;;;;;13.23;3.95;;;19.70;99.90;;;;;;5098452;28;20219;-82
2022/08/03 02:38:55;;;;;;;16.45;3.97;;;19.70;99.90;;;;;;5093494;28;20208;-83
2022/08/03 02:41:27;;;;;;;13.35;3.67;;;19.70;99.90;;;;;;5093505;28;20200;-80
2022/08/03 02:43:57;;;;;;;17.30;4.43;;;19.70;99.90;;;;;;5093206;28;20220;-84
2022/08/03 02:46:28;;;;;;;14.38;4.20;;;19.70;99.90;;;;;;5092925;28;20203;-85
2022/08/03 02:48:56;;;;;;;22.42;5.90;;;19.70;99.90;;;;;;5093600;28;20180;-81
2022/08/03 02:51:25;;;;;;;21.45;5.03;;;19.70;99.90;;;;;;5093163;28;20287;-81
2022/08/03 02:53:56;;;;;;;19.95;4.68;;;19.70;99.90;;;;;;5092494;28;20195;-82
2022/08/03 02:56:25;;;;;;;11.30;3.92;;;19.70;99.90;;;;;;5092695;28;20227;-81
2022/08/03 02:58:53;;;;;;;19.75;5.13;;;19.70;99.90;;;;;;5093056;28;20204;-81
2022/08/03 03:01:20;;;;;;;12.60;4.38;;;19.70;99.90;;;;;;5092276;28;20283;-80
2022/08/03 03:03:49;;;;;;;22.13;5.03;;;19.70;99.90;;;;;;5092069;28;20216;-83
2022/08/03 03:06:17;;;;;;;25.05;5.22;;;19.70;99.90;;;;;;5092579;28;20192;-80
2022/08/03 03:08:44;;;;;;;18.25;4.22;;;19.70;99.90;;;;;;5091977;28;20200;-80
2022/08/03 03:11:14;;;;;;;16.15;3.80;;;19.70;99.90;;;;;;5092641;28;20200;-82
2022/08/03 03:13:42;;;;;;;11.32;3.92;;;19.60;99.90;;;;;;5092332;28;20193;-81
2022/08/03 03:16:11;;;;;;;12.80;4.20;;;19.60;99.90;;;;;;5091522;28;20243;-80
2022/08/03 03:18:40;;;;;;;14.15;4.43;;;19.60;99.90;;;;;;5092002;28;20196;-81
2022/08/03 03:21:09;;;;;;;17.17;4.28;;;19.60;99.90;;;;;;5092299;28;20208;-80
2022/08/03 03:23:37;;;;;;;15.30;4.03;;;19.50;99.90;;;;;;5093018;28;20204;-81
2022/08/03 03:26:05;;;;;;;15.25;4.22;;;19.50;99.90;;;;;;5112708;28;20550;-83
2022/08/03 03:28:36;;;;;;;17.83;4.05;;;19.50;99.90;;;;;;5112931;28;20587;-83
2022/08/03 03:31:04;;;;;;;16.42;4.47;;;19.50;99.90;;;;;;5097671;28;20205;-82
2022/08/03 03:33:32;;;;;;;19.63;5.50;;;19.50;99.90;;;;;;5092696;28;20627;-83
2022/08/03 03:35:59;;;;;;;13.02;4.22;;;19.50;99.90;;;;;;5092771;28;20491;-83
2022/08/03 03:38:27;;;;;;;12.73;3.80;;;19.40;99.90;;;;;;5092881;28;20311;-83
2022/08/03 03:40:54;;;;;;;12.65;3.83;;;19.40;99.90;;;;;;5092814;28;20204;-81
2022/08/03 03:43:23;;;;;;;18.40;3.95;;;19.40;99.90;;;;;;5092274;28;20196;-83
2022/08/03 03:45:52;;;;;;;12.98;4.30;;;19.30;99.90;;;;;;5076219;28;20770;-83
2022/08/03 03:48:20;;;;;;;10.77;3.90;;;19.30;99.90;;;;;;5098654;28;20261;-82
2022/08/03 03:50:49;;;;;;;12.20;4.18;;;19.30;99.90;;;;;;5099828;28;20207;-82
2022/08/03 03:53:15;;;;;;;16.25;4.43;;;19.30;99.90;;;;;;5114482;28;20206;-81
2022/08/03 03:55:42;;;;;;;16.30;4.72;;;19.20;99.90;;;;;;5117465;28;20195;-81
2022/08/03 03:58:09;;;;;;;17.13;4.80;;;19.20;99.90;;;;;;5107905;28;20201;-81
2022/08/03 04:00:36;;;;;;;11.32;4.40;;;19.20;99.90;;;;;;5096946;28;20196;-81
2022/08/03 04:03:04;;;;;;;15.95;4.07;;;19.20;99.90;;;;;;5096305;28;20201;-81
2022/08/03 04:11:19;;;;;;;14.48;4.15;;;19.10;99.90;;;;;;5072075;28;20552;-82
2022/08/03 04:13:51;;;;;;;11.50;4.20;;;19.10;99.90;;;;;;5078799;28;20204;-82
2022/08/03 04:16:21;;;;;;;17.40;4.35;;;19.10;99.90;;;;;;5096601;28;20266;-81
2022/08/03 04:18:53;;;;;;;16.20;5.05;;;19.10;99.90;;;;;;5095535;28;20246;-80
2022/08/03 04:21:22;;;;;;;16.42;4.95;;;19.10;99.90;;;;;;5095856;28;20187;-82
2022/08/03 04:23:52;;;;;;;13.32;4.47;;;19.10;99.90;;;;;;5095513;28;20223;-82
2022/08/03 04:26:22;;;;;;;17.50;4.70;;;19.10;99.90;;;;;;5094757;28;20208;-81
2022/08/03 04:28:50;;;;;;;10.63;4.72;;;19.20;99.90;;;;;;5095425;28;20192;-81
2022/08/03 04:31:20;;;;;;;19.58;4.68;;;19.20;99.90;;;;;;5095432;28;20199;-80
2022/08/03 04:33:50;;;;;;;20.02;4.90;;;19.20;99.90;;;;;;5094925;28;20223;-80
2022/08/03 04:36:20;;;;;;;21.42;4.97;;;19.20;99.90;;;;;;5095453;28;20577;-82
2022/08/03 04:38:56;;;;;;;18.77;4.97;;;19.20;99.90;;;;;;5094975;28;20259;-81
2022/08/03 04:41:25;;;;;;;12.95;3.63;;;19.30;99.90;;;;;;5095326;28;20204;-82
2022/08/03 04:43:55;;;;;;;18.98;5.05;;;19.20;99.90;;;;;;5094563;28;20196;-83
2022/08/03 04:46:24;;;;;;;18.25;5.50;;;19.30;99.90;;;;;;5094541;28;20201;-81
2022/08/03 04:48:53;;;;;;;14.57;4.50;;;19.30;99.90;;;;;;5095336;28;20189;-80
2022/08/03 04:51:21;;;;;;;11.95;4.10;;;19.30;99.90;;;;;;5095424;28;20208;-81
2022/08/03 04:53:48;;;;;;;13.60;4.93;;;19.40;99.90;;;;;;5094481;28;20600;-82
2022/08/03 04:56:15;;;;;;;18.50;4.55;;;19.40;99.90;;;;;;5101842;28;20200;-81
2022/08/03 04:58:42;;;;;;;18.00;5.63;;;19.50;99.90;;;;;;5114273;28;20223;-80
2022/08/03 05:01:08;;;;;;;15.82;4.60;;;19.40;99.90;;;;;;5101986;28;20204;-81
2022/08/03 05:03:36;;;;;;;16.45;4.90;;;19.40;99.90;;;;;;5097950;28;20210;-82
2022/08/03 05:06:04;;;;;;;13.55;4.35;;;19.40;99.90;;;;;;5115150;28;20211;-83
2022/08/03 05:08:31;;;;;;;15.18;5.15;;;19.50;99.90;;;;;;5114476;28;20199;-81
2022/08/03 05:10:58;;;;;;;18.33;5.20;;;19.50;99.90;;;;;;5099933;28;20200;-82
2022/08/03 05:13:25;;;;;;;22.20;5.35;;;19.60;99.90;;;;;;5095358;28;20261;-83
2022/08/03 05:15:51;;;;;;;19.20;4.63;;;19.60;99.90;;;;;;5094304;28;20252;-83
2022/08/03 05:18:18;;;;;;;15.75;4.55;;;19.60;99.90;;;;;;5094961;28;20558;-83
2022/08/03 05:20:45;;;;;;;15.10;4.53;;;19.70;99.90;;;;;;5094082;28;20640;-84
2022/08/03 05:23:13;;;;;;;16.10;4.78;;;19.70;99.90;;;;;;5095341;28;20212;-81
2022/08/03 05:25:40;;;;;;;18.67;5.35;;;19.70;99.90;;;;;;5109966;28;20224;-82
2022/08/03 05:28:07;;;;;;;16.70;5.10;;;19.70;99.90;;;;;;5114919;28;20191;-82
2022/08/03 05:30:34;;;;;;;15.05;4.88;;;19.70;99.90;;;;;;5114989;28;20196;-82
2022/08/03 05:33:02;;;;;;;16.98;5.25;;;19.70;99.90;;;;;;5106708;28;20192;-85
2022/08/03 05:35:28;;;;;;;17.75;4.72;;;19.80;99.90;;;;;;5094400;28;20301;-82
2022/08/03 05:37:55;;;;;;;21.52;5.00;;;19.90;99.90;;;;;;5094319;28;20304;-82
2022/08/03 05:40:24;;;;;;;13.15;4.78;;;19.90;99.90;;;;;;5094203;28;20203;-82
2022/08/03 05:42:51;;;;;;;12.90;4.70;;;20.00;99.90;;;;;;5093648;28;20605;-81
2022/08/03 05:45:17;;;;;;;14.43;5.38;;;20.00;99.90;;;;;;5094216;28;20519;-82
2022/08/03 05:47:45;;;;;;;14.57;4.90;;;20.10;99.90;;;;;;5094895;28;20211;-82
2022/08/03 05:50:12;;;;;;;18.80;4.88;;;20.10;99.90;;;;;;5093707;28;20663;-84
2022/08/03 05:52:39;;;;;;;13.82;4.35;;;20.20;99.90;;;;;;5093928;28;20442;-82
2022/08/03 05:55:07;;;;;;;17.83;4.95;;;20.30;99.90;;;;;;5094241;28;20192;-82
2022/08/03 05:57:36;;;;;;;26.00;5.93;;;20.40;99.90;;;;;;5094178;28;20200;-83
2022/08/03 06:00:06;;;;;;;21.73;4.93;;;20.50;99.90;;;;;;5094357;28;20199;-81
2022/08/03 06:02:33;;;;;;;17.95;5.20;;;20.50;99.90;;;;;;5094196;28;20197;-82
2022/08/03 06:05:00;;;;;;;23.38;5.80;;;20.60;99.90;;;;;;5093202;28;20220;-83
2022/08/03 06:07:27;;;;;;;16.48;4.95;;;20.70;99.90;;;;;;5093962;28;20731;-81
2022/08/03 06:09:55;;;;;;;18.63;5.50;;;20.70;99.90;;;;;;5096166;28;20222;-83
2022/08/03 06:12:21;;;;;;;24.15;5.72;;;20.90;99.90;;;;;;5095588;28;20283;-83
2022/08/03 06:14:51;;;;;;;17.38;4.50;;;21.00;99.90;;;;;;5112026;28;20222;-85
2022/08/03 06:17:17;;;;;;;20.52;5.18;;;21.20;99.90;;;;;;5111073;28;20467;-83
2022/08/03 06:19:44;;;;;;;20.80;5.03;;;21.40;99.90;;;;;;5093621;28;20790;-82
2022/08/03 06:22:11;;;;;;;21.10;5.80;;;21.50;99.90;;;;;;5094818;28;20201;-84
2022/08/03 06:24:38;;;;;;;16.98;4.80;;;21.60;99.90;;;;;;5108091;28;20228;-80
2022/08/03 06:27:05;;;;;;;16.75;4.57;;;21.70;99.90;;;;;;5101368;28;20206;-83
2022/08/03 06:29:32;;;;;;;16.13;4.40;;;21.90;99.90;;;;;;5114198;28;20242;-82
2022/08/03 06:32:00;;;;;;;22.63;5.10;;;21.90;99.90;;;;;;5103344;28;20500;-83
2022/08/03 06:34:27;;;;;;;15.20;4.82;;;22.00;99.90;;;;;;5106939;28;20294;-85
2022/08/03 06:36:54;;;;;;;27.17;5.80;;;22.10;99.90;;;;;;5114006;28;20199;-82
2022/08/03 06:39:22;;;;;;;18.52;4.70;;;22.30;99.90;;;;;;5112663;28;20257;-83
2022/08/03 06:41:49;;;;;;;19.58;4.35;;;22.50;99.90;;;;;;5113145;28;20295;-83
2022/08/03 06:44:16;;;;;;;17.35;5.15;;;22.70;99.90;;;;;;5105080;28;20604;-85
2022/08/03 06:46:42;;;;;;;20.85;5.10;;;23.00;99.90;;;;;;5112069;28;20220;-86
2022/08/03 06:49:11;;;;;;;15.98;4.38;;;23.10;99.90;;;;;;5103036;28;20943;-83
2022/08/03 06:51:38;;;;;;;20.60;5.43;;;23.30;99.90;;;;;;5094073;28;20207;-83
2022/08/03 06:54:05;;;;;;;16.25;4.68;;;23.50;99.90;;;;;;5094206;28;20296;-84
2022/08/03 06:56:32;;;;;;;11.48;4.25;;;23.80;99.90;;;;;;5093790;28;20922;-83
2022/08/03 06:58:59;;;;;;;19.70;5.35;;;23.90;99.90;;;;;;5093421;28;20205;-86
2022/08/03 07:01:26;;;;;;;17.85;4.25;;;24.20;99.90;;;;;;5093216;28;20197;-85
2022/08/03 07:03:53;;;;;;;16.30;5.10;;;24.30;99.90;;;;;;5093181;28;20230;-84
2022/08/03 07:06:21;;;;;;;18.55;4.50;;;24.40;99.90;;;;;;5093229;28;20246;-84
2022/08/03 07:08:48;;;;;;;16.77;4.55;;;24.60;99.90;;;;;;5110467;28;20202;-83
2022/08/03 07:11:15;;;;;;;15.75;4.55;;;24.70;99.90;;;;;;5110336;28;20195;-85
2022/08/03 07:13:42;;;;;;;20.05;4.57;;;24.80;99.90;;;;;;5110144;28;20752;-84
2022/08/03 07:16:09;;;;;;;15.82;4.13;;;25.00;99.90;;;;;;5093897;28;20231;-82
2022/08/03 07:18:38;;;;;;;18.65;5.03;;;25.20;99.90;;;;;;5092879;28;20200;-84
2022/08/03 07:21:06;;;;;;;16.30;4.72;;;25.50;99.90;;;;;;5091741;28;20200;-86
2022/08/03 07:23:35;;;;;;;13.65;3.97;;;25.50;99.90;;;;;;5093131;28;20246;-85
2022/08/03 07:26:02;;;;;;;14.02;4.32;;;25.50;99.90;;;;;;5092754;28;20615;-85
2022/08/03 07:28:29;;;;;;;18.50;4.78;;;25.40;99.90;;;;;;5091805;28;20208;-82
2022/08/03 07:30:55;;;;;;;14.65;4.07;;;25.30;99.90;;;;;;5092065;28;20207;-82
2022/08/03 07:33:23;;;;;;;14.02;4.63;;;25.20;99.90;;;;;;5091554;28;20204;-82
2022/08/03 07:35:50;;;;;;;14.90;4.80;;;25.10;99.90;;;;;;5091148;28;20613;-83
2022/08/03 07:38:17;;;;;;;17.63;6.40;;;24.90;99.90;;;;;;5091780;28;20216;-83
2022/08/03 07:40:45;;;;;;;18.10;5.28;;;25.00;99.90;;;;;;5088762;28;20216;-81
2022/08/03 07:43:12;;;;;;;14.95;4.40;;;25.10;99.90;;;;;;5099757;28;20208;-83
2022/08/03 07:45:39;;;;;;;18.40;4.13;;;25.00;99.90;;;;;;5094694;28;20300;-83
2022/08/03 07:48:06;;;;;;;18.92;4.50;;;25.00;99.90;;;;;;5101237;28;20294;-81
2022/08/03 07:50:32;;;;;;;14.35;4.13;;;24.90;99.90;;;;;;5087928;28;20243;-81
2022/08/03 07:52:59;;;;;;;18.65;4.45;;;24.80;99.90;;;;;;5097519;28;20523;-82
2022/08/03 07:55:27;;;;;;;13.55;4.32;;;24.70;99.90;;;;;;5100426;28;20602;-83
2022/08/03 07:58:10;;;;;;;13.75;4.55;;;24.70;99.90;;;;;;5106410;28;20238;-82
2022/08/03 08:00:38;;;;;;;16.73;5.07;;;24.50;99.90;;;;;;5091057;28;20277;-83
2022/08/03 08:03:05;;;;;;;15.05;4.80;;;24.40;99.90;;;;;;5111352;28;20248;-82
2022/08/03 08:05:32;;;;;;;20.40;5.28;;;24.30;99.90;;;;;;5110222;28;20215;-81
2022/08/03 08:07:59;;;;;;;20.92;4.47;;;24.30;99.90;;;;;;5092154;28;20646;-82
2022/08/03 08:10:27;;;;;;;17.35;4.30;;;24.20;99.90;;;;;;5099327;28;20205;-83
2022/08/03 08:12:54;;;;;;;15.88;4.78;;;24.10;99.90;;;;;;5097094;28;20216;-80
2022/08/03 08:15:22;;;;;;;20.25;5.57;;;24.00;99.90;;;;;;5097443;28;20207;-83
2022/08/03 08:17:52;;;;;;;15.30;5.07;;;23.90;99.90;;;;;;5103583;28;20234;-82
2022/08/03 08:20:22;;;;;;;15.82;4.90;;;23.80;99.90;;;;;;5093524;28;20235;-83
2022/08/03 08:22:49;;;;;;;17.65;4.78;;;23.70;99.90;;;;;;5098745;28;20237;-83
2022/08/03 08:25:16;;;;;;;16.90;4.43;;;23.70;99.90;;;;;;5093284;28;20230;-83
2022/08/03 08:27:44;;;;;;;14.30;4.00;;;23.70;99.90;;;;;;5089785;28;20216;-83
2022/08/03 08:30:13;;;;;;;16.58;4.32;;;23.50;99.90;;;;;;5094069;28;20209;-83
2022/08/03 08:32:42;;;;;;;11.07;3.63;;;23.40;99.90;;;;;;5105608;28;20214;-85
2022/08/03 08:35:10;;;;;;;14.55;3.65;;;23.40;99.90;;;;;;5096134;28;20795;-82
2022/08/03 08:37:39;;;;;;;12.38;3.97;;;23.40;99.90;;;;;;5103068;28;20311;-82
2022/08/03 08:40:07;;;;;;;14.77;4.72;;;23.30;99.90;;;;;;5102401;28;20204;-82
2022/08/03 08:42:37;;;;;;;15.30;4.43;;;23.20;99.90;;;;;;5101963;28;20226;-84
2022/08/03 08:45:05;;;;;;;15.00;4.93;;;23.20;99.90;;;;;;5099014;28;20205;-83
2022/08/03 08:47:34;;;;;;;16.83;5.18;;;23.20;99.90;;;;;;5095685;28;20259;-82
2022/08/03 08:50:03;;;;;;;18.90;4.57;;;23.10;99.90;;;;;;5097967;28;20208;-84
2022/08/03 08:52:31;;;;;;;14.80;4.63;;;23.10;99.90;;;;;;5112024;28;20662;-82
2022/08/03 08:55:02;;;;;;;12.38;4.57;;;23.00;99.90;;;;;;5114038;28;20204;-81
2022/08/03 08:57:33;;;;;;;14.25;4.50;;;23.10;99.90;;;;;;5101140;28;20518;-82
2022/08/03 09:00:02;;;;;;;13.85;4.93;;;23.00;99.90;;;;;;5103043;28;20207;-82
2022/08/03 09:02:30;;;;;;;19.38;4.82;;;23.00;99.90;;;;;;5099766;28;20205;-82
2022/08/03 09:04:57;;;;;;;16.08;4.82;;;23.00;99.90;;;;;;5095263;28;20198;-82
2022/08/03 09:07:27;;;;;;;20.27;4.68;;;23.00;99.90;;;;;;5094340;28;20296;-80
2022/08/03 09:09:54;;;;;;;18.02;4.90;;;23.00;99.90;;;;;;5094648;28;20208;-81
2022/08/03 09:12:21;;;;;;;17.73;4.45;;;23.00;99.90;;;;;;5095078;28;20303;-83
2022/08/03 09:14:48;;;;;;;19.48;4.85;;;22.90;99.90;;;;;;5094182;28;20746;-85
2022/08/03 09:17:16;;;;;;;15.50;4.32;;;22.90;99.90;;;;;;5094595;28;20239;-79
2022/08/03 09:19:42;;;;;;;16.38;4.57;;;23.00;99.90;;;;;;5094413;28;20201;-82
2022/08/03 09:22:15;;;;;;;11.98;4.13;;;23.20;99.90;;;;;;5093169;28;20228;-83
2022/08/03 09:24:57;;;;;;;12.93;4.20;;;23.30;99.90;;;;;;5093937;28;20287;-79
2022/08/03 09:27:24;;;;;;;15.02;4.32;;;23.30;99.90;;;;;;5092627;28;20247;-82
2022/08/03 09:29:52;;;;;;;10.30;3.55;;;23.40;99.90;;;;;;5092365;28;20193;-79
2022/08/03 09:32:20;;;;;;;16.05;4.70;;;23.60;99.90;;;;;;5091874;28;20338;-80
2022/08/03 09:34:49;;;;;;;15.50;4.10;;;23.80;99.90;;;;;;5091170;28;20208;-80
2022/08/03 09:37:17;;;;;;;13.35;3.90;;;24.00;99.90;;;;;;5092010;28;20231;-83
2022/08/03 09:39:45;;;;;;;12.50;4.05;;;24.10;99.90;;;;;;5091766;28;20196;-80
2022/08/03 09:42:16;;;;;;;14.93;4.25;;;24.30;99.90;;;;;;5091731;28;20272;-84
2022/08/03 09:44:44;;;;;;;16.13;4.22;;;24.40;99.90;;;;;;5093514;28;20296;-82
2022/08/03 09:47:13;;;;;;;17.92;4.50;;;24.80;99.90;;;;;;5092615;28;20447;-83
2022/08/03 09:49:42;;;;;;;15.65;3.72;;;25.10;99.90;;;;;;5092099;28;20201;-82
2022/08/03 09:52:17;;;;;;;12.75;3.60;;;25.60;99.90;;;;;;5092744;28;20286;-81
2022/08/03 09:54:50;;;;;;;18.48;4.32;;;25.90;99.90;;;;;;5102358;22;20204;-83
2022/08/03 09:57:23;;;;;;;11.35;4.32;;;26.20;99.90;;;;;;5067515;28;20251;-80
2022/08/03 09:59:50;;;;;;;15.35;4.85;;;26.40;99.90;;;;;;5051909;28;20201;-82
2022/08/03 10:02:24;;;;;;;11.93;4.07;;;26.30;99.90;;;;;;5052014;28;20540;-81
2022/08/03 10:04:52;;;;;;;9.73;3.40;;;26.60;99.90;;;;;;5052008;28;20578;-82
2022/08/03 10:07:21;;;;;;;11.98;4.53;;;26.80;99.90;;;;;;5052803;28;20513;-85
2022/08/03 10:09:54;;;;;;;10.25;3.50;;;26.90;99.90;;;;;;5052620;28;20248;-82
2022/08/03 10:12:23;;;;;;;17.08;4.20;;;27.00;99.90;;;;;;5053104;28;20228;-82
2022/08/03 10:14:51;;;;;;;12.65;4.05;;;27.00;99.90;;;;;;5053038;28;20202;-84
2022/08/03 10:17:19;;;;;;;10.45;4.00;;;27.10;99.90;;;;;;5051853;28;20198;-81
2022/08/03 10:19:46;;;;;;;11.90;3.63;;;27.30;99.90;;;;;;5053609;28;20210;-82
2022/08/03 10:22:15;;;;;;;13.85;3.95;;;27.50;99.90;;;;;;5052907;28;20202;-81
2022/08/03 10:24:50;;;;;;;9.07;3.40;;;27.70;99.90;;;;;;5053405;28;20292;-82
2022/08/03 10:27:19;;;;;;;12.30;4.07;;;27.90;99.90;;;;;;5053462;28;20220;-83
2022/08/03 10:29:52;;;;;;;12.73;4.20;;;27.90;99.90;;;;;;5053072;28;20259;-83
2022/08/03 10:32:22;;;;;;;12.15;3.85;;;28.10;99.90;;;;;;5052805;28;20205;-85
2022/08/03 10:34:51;;;;;;;11.65;3.55;;;28.20;99.90;;;;;;5054328;28;20186;-83
2022/08/03 10:37:21;;;;;;;11.63;3.08;;;28.30;99.90;;;;;;5054589;28;20664;-83
2022/08/03 10:39:53;;;;;;;14.85;4.65;;;28.30;99.90;;;;;;5056876;28;20541;-82
2022/08/03 10:42:23;;;;;;;12.15;3.92;;;28.30;99.90;;;;;;5062026;28;20204;-85
2022/08/03 10:45:01;;;;;;;15.90;4.30;;;28.30;99.90;;;;;;5063993;28;20201;-83
2022/08/03 10:47:28;;;;;;;13.05;3.90;;;28.30;99.90;;;;;;5061856;28;20249;-86
2022/08/03 10:49:55;;;;;;;11.35;3.38;;;28.30;99.90;;;;;;5081012;28;20194;-85
2022/08/03 10:52:22;;;;;;;14.90;3.67;;;28.40;99.90;;;;;;5075073;28;20193;-84
2022/08/03 10:57:44;;;;;;;16.00;4.57;;;28.50;99.90;;;;;;5052563;28;20194;-86
2022/08/03 11:00:15;;;;;;;9.95;3.40;;;28.50;99.90;;;;;;5053449;28;20251;-85
2022/08/03 11:03:10;;;;;;;10.82;3.47;;;28.50;99.90;;;;;;5054223;28;20585;-83
2022/08/03 11:05:40;;;;;;;12.52;3.42;;;28.70;99.90;;;;;;5052635;28;20208;-82
2022/08/03 11:08:24;;;;;;;13.68;3.47;;;28.70;99.90;;;;;;5053364;28;20228;-85
2022/08/03 11:10:55;;;;;;;13.27;4.07;;;28.80;99.90;;;;;;5053469;28;20228;-84
2022/08/03 11:13:24;;;;;;;11.82;3.05;;;28.70;99.90;;;;;;5052948;28;20194;-85
2022/08/03 11:15:56;;;;;;;12.15;3.28;;;28.60;99.90;;;;;;5053399;28;20270;-86
2022/08/03 11:18:24;;;;;;;12.88;3.58;;;28.50;99.90;;;;;;5053337;28;20257;-85
2022/08/03 11:20:52;;;;;;;10.68;3.28;;;28.60;99.90;;;;;;5052174;28;20206;-83
2022/08/03 11:23:41;;;;;;;13.73;3.85;;;28.60;99.90;;;;;;5053078;28;20208;-84
2022/08/03 11:26:16;;;;;;;16.35;3.75;;;28.70;99.90;;;;;;5067300;28;20235;-87
2022/08/03 11:28:44;;;;;;;11.75;3.65;;;28.80;99.90;;;;;;5073033;28;20227;-87
2022/08/03 11:31:57;;;;;;;14.93;3.97;;;28.90;99.90;;;;;;5069730;28;20296;-87
2022/08/03 11:34:26;;;;;;;11.52;3.28;;;28.90;99.90;;;;;;5053437;28;20254;-86
2022/08/03 11:37:24;;;;;;;11.48;3.75;;;28.90;99.90;;;;;;5053602;28;20221;-88
2022/08/03 11:39:53;;;;;;;13.82;4.32;;;28.90;99.90;;;;;;5058523;28;20201;-84
2022/08/03 11:42:39;;;;;;;12.10;3.53;;;28.80;99.90;;;;;;5073758;28;20201;-88
2022/08/03 11:45:09;;;;;;;13.45;4.07;;;28.90;99.90;;;;;;5067069;28;20205;-83
2022/08/03 11:47:39;;;;;;;11.77;4.00;;;28.90;99.90;;;;;;5053106;28;20289;-84
2022/08/03 11:50:08;;;;;;;8.05;3.22;;;28.80;99.90;;;;;;5054079;28;20233;-88
2022/08/03 11:52:38;;;;;;;14.88;4.13;;;28.80;99.90;;;;;;5053692;28;20198;-89
2022/08/03 11:55:13;;;;;;;13.48;3.83;;;28.80;99.90;;;;;;5051477;28;20324;-87
2022/08/03 11:57:40;;;;;;;9.68;2.70;;;28.70;99.90;;;;;;5060110;28;20221;-89
2022/08/03 12:00:25;;;;;;;15.75;4.07;;;28.60;99.90;;;;;;5073851;28;20233;-88
2022/08/03 12:03:04;;;;;;;15.48;3.92;;;28.40;99.90;;;;;;5053406;28;20201;-88
2022/08/03 12:05:38;;;;;;;14.85;3.58;;;28.40;99.90;;;;;;5065075;28;20696;-88
2022/08/03 12:08:06;;;;;;;16.27;4.25;;;28.40;99.90;;;;;;5075024;28;20227;-89
2022/08/03 12:10:34;;;;;;;10.13;3.45;;;28.50;99.90;;;;;;5077298;28;20208;-88
2022/08/03 12:13:04;;;;;;;12.80;3.95;;;28.30;99.90;;;;;;5077009;28;20251;-91
2022/08/03 12:15:33;;;;;;;11.45;4.05;;;28.50;99.90;;;;;;5077672;28;20228;-90
2022/08/03 12:18:00;;;;;;;14.85;3.65;;;28.60;99.90;;;;;;5057639;28;20201;-88
2022/08/03 12:20:31;;;;;;;15.60;4.35;;;28.70;99.90;;;;;;5057327;28;20210;-83
2022/08/03 12:23:05;;;;;;;9.48;3.13;;;28.90;99.90;;;;;;5056872;28;20198;-87
2022/08/03 12:25:34;;;;;;;14.60;4.47;;;29.00;99.90;;;;;;5057152;28;20288;-86
2022/08/03 12:28:19;;;;;;;17.13;3.65;;;28.90;99.90;;;;;;5063443;28;20425;-89
2022/08/03 12:30:48;;;;;;;14.20;3.70;;;28.70;99.90;;;;;;5069361;28;20204;-84
2022/08/03 12:33:19;;;;;;;13.93;3.88;;;28.70;99.90;;;;;;5056564;28;20217;-85
2022/08/03 12:35:48;;;;;;;14.30;3.88;;;28.70;99.90;;;;;;5055944;28;20521;-88
2022/08/03 12:38:22;;;;;;;12.02;3.92;;;28.70;99.90;;;;;;5056656;28;20229;-87
2022/08/03 12:41:12;;;;;;;19.40;4.03;;;28.70;99.90;;;;;;5056211;28;20190;-83
2022/08/03 12:43:48;;;;;;;10.43;3.28;;;28.60;99.90;;;;;;5052122;28;20210;-84
2022/08/03 12:46:16;;;;;;;10.60;3.97;;;28.50;99.90;;;;;;5070358;28;20202;-88
2022/08/03 12:49:07;;;;;;;13.25;3.92;;;28.50;99.90;;;;;;5076269;28;20272;-88
2022/08/03 12:51:35;;;;;;;14.48;3.95;;;28.60;99.90;;;;;;5076083;28;20229;-85
2022/08/03 12:54:05;;;;;;;14.93;4.05;;;28.60;48.10;;;;;;5075498;28;20196;-88
2022/08/03 12:56:32;;;;;;;10.98;3.40;;;28.50;1.00;;;;;;5076016;28;20229;-86
2022/08/03 12:58:58;;;;;;;15.57;4.78;;;28.50;1.00;;;;;;5071607;28;20212;-88